createdAt,value
2019-03-30T00:00:38.126Z,99.90
2019-03-30T00:03:08.774Z,99.90
2019-03-30T00:05:39.120Z,99.90
2019-03-30T00:08:29.157Z,99.90
2019-03-30T00:10:59.521Z,99.90
2019-03-30T00:13:29.924Z,99.90
2019-03-30T00:16:00.337Z,99.90
2019-03-30T00:18:32.139Z,99.90
2019-03-30T00:21:02.568Z,99.70
2019-03-30T00:23:33.497Z,99.50
2019-03-30T00:26:04.264Z,99.40
2019-03-30T00:28:34.874Z,99.10
2019-03-30T00:31:05.629Z,98.90
2019-03-30T00:33:36.372Z,98.80
2019-03-30T00:36:06.760Z,98.80
2019-03-30T00:38:37.524Z,98.90
2019-03-30T00:41:07.894Z,98.80
2019-03-30T00:43:38.568Z,98.80
2019-03-30T00:46:08.951Z,98.70
2019-03-30T00:48:39.935Z,98.70
2019-03-30T00:51:10.572Z,98.80
2019-03-30T00:53:41.265Z,98.80
2019-03-30T00:56:11.604Z,98.80
2019-03-30T00:58:41.955Z,98.80
2019-03-30T01:01:13.205Z,98.80
2019-03-30T01:03:43.817Z,98.80
2019-03-30T01:06:14.177Z,98.80
2019-03-30T01:08:44.955Z,98.80
2019-03-30T01:11:15.317Z,98.70
2019-03-30T01:13:45.644Z,98.70
2019-03-30T01:16:16.046Z,98.80
2019-03-30T01:18:47.199Z,98.80
2019-03-30T01:21:17.801Z,98.80
2019-03-30T01:23:48.204Z,98.70
2019-03-30T01:26:18.909Z,98.60
2019-03-30T01:28:49.530Z,98.60
2019-03-30T01:31:20.358Z,98.50
2019-03-30T01:33:51.110Z,98.70
2019-03-30T01:36:21.810Z,98.70
2019-03-30T01:38:52.801Z,99.00
2019-03-30T01:41:23.451Z,98.70
2019-03-30T01:43:54.496Z,98.70
2019-03-30T01:46:25.445Z,98.70
2019-03-30T01:48:55.798Z,98.60
2019-03-30T01:51:26.135Z,98.60
2019-03-30T01:53:56.591Z,98.70
2019-03-30T01:56:26.943Z,98.60
2019-03-30T01:58:57.880Z,98.60
2019-03-30T02:01:28.620Z,98.70
2019-03-30T02:03:58.976Z,98.60
2019-03-30T02:06:29.338Z,98.70
2019-03-30T02:09:00.069Z,98.70
2019-03-30T02:11:30.416Z,98.70
2019-03-30T02:14:00.749Z,98.60
2019-03-30T02:16:31.202Z,98.60
2019-03-30T02:19:01.562Z,98.60
2019-03-30T02:21:32.267Z,98.60
2019-03-30T02:24:02.976Z,98.50
2019-03-30T02:26:33.602Z,98.60
2019-03-30T02:29:04.239Z,98.60
2019-03-30T02:31:34.754Z,98.90
2019-03-30T02:34:05.096Z,98.70
2019-03-30T02:36:35.514Z,99.00
2019-03-30T02:39:06.850Z,98.60
2019-03-30T02:41:37.185Z,98.80
2019-03-30T02:44:07.859Z,98.60
2019-03-30T02:46:38.471Z,98.60
2019-03-30T02:49:09.168Z,98.60
2019-03-30T02:51:39.500Z,98.60
2019-03-30T02:54:09.948Z,98.50
2019-03-30T02:56:40.546Z,98.50
2019-03-30T02:59:10.878Z,98.70
2019-03-30T03:01:41.558Z,98.60
2019-03-30T03:04:12.238Z,98.50
2019-03-30T03:06:42.594Z,98.70
2019-03-30T03:09:13.716Z,99.00
2019-03-30T03:11:44.071Z,99.30
2019-03-30T03:14:14.403Z,99.30
2019-03-30T03:16:44.855Z,99.30
2019-03-30T03:19:15.497Z,99.20
2019-03-30T03:21:46.228Z,99.00
2019-03-30T03:24:17.283Z,98.80
2019-03-30T03:26:48.035Z,98.80
2019-03-30T03:29:18.373Z,98.70
2019-03-30T03:31:48.728Z,98.50
2019-03-30T03:34:19.460Z,98.40
2019-03-30T03:36:50.152Z,98.40
2019-03-30T03:39:21.044Z,98.30
2019-03-30T03:41:51.469Z,98.30
2019-03-30T03:44:21.851Z,98.50
2019-03-30T03:46:52.604Z,99.00
2019-03-30T03:49:22.942Z,99.50
2019-03-30T03:51:53.660Z,99.20
2019-03-30T03:54:24.451Z,99.20
2019-03-30T03:56:54.810Z,99.20
2019-03-30T03:59:27.268Z,99.30
2019-03-30T04:01:57.670Z,99.20
2019-03-30T04:04:28.293Z,99.20
2019-03-30T04:07:02.051Z,99.40
2019-03-30T04:09:34.103Z,99.60
2019-03-30T04:12:06.767Z,99.70
2019-03-30T04:14:38.191Z,99.50
2019-03-30T04:17:08.865Z,99.80
2019-03-30T04:19:39.594Z,99.70
2019-03-30T04:22:10.274Z,99.60
2019-03-30T04:24:41.229Z,99.60
2019-03-30T04:27:11.558Z,99.40
2019-03-30T04:29:41.894Z,99.30
2019-03-30T04:32:12.560Z,99.20
2019-03-30T04:34:42.904Z,99.10
2019-03-30T04:37:13.599Z,99.20
2019-03-30T04:39:44.343Z,99.10
2019-03-30T04:42:15.129Z,99.10
2019-03-30T04:44:45.746Z,99.10
2019-03-30T04:47:16.580Z,99.10
2019-03-30T04:49:47.228Z,98.90
2019-03-30T04:52:17.557Z,98.80
2019-03-30T04:54:47.961Z,99.20
2019-03-30T04:57:18.320Z,98.80
2019-03-30T04:59:48.917Z,98.90
2019-03-30T05:02:19.667Z,98.80
2019-03-30T05:04:49.999Z,99.10
2019-03-30T05:07:21.054Z,99.10
2019-03-30T05:09:51.922Z,99.10
2019-03-30T05:12:22.249Z,99.10
2019-03-30T05:14:52.604Z,99.10
2019-03-30T05:17:23.244Z,99.10
2019-03-30T05:19:53.576Z,99.10
2019-03-30T05:22:24.380Z,99.00
2019-03-30T05:24:54.807Z,98.80
2019-03-30T05:27:25.529Z,98.70
2019-03-30T05:29:56.240Z,98.80
2019-03-30T05:32:26.979Z,98.70
2019-03-30T05:34:57.732Z,98.50
2019-03-30T05:37:28.426Z,98.50
2019-03-30T05:39:59.291Z,98.40
2019-03-30T05:42:29.896Z,98.40
2019-03-30T05:45:00.471Z,98.50
2019-03-30T05:47:30.932Z,98.40
2019-03-30T05:50:01.285Z,98.40
2019-03-30T05:52:31.882Z,98.30
2019-03-30T05:55:02.567Z,98.40
2019-03-30T05:57:33.218Z,98.30
2019-03-30T06:00:05.056Z,98.30
2019-03-30T06:02:35.421Z,98.30
2019-03-30T06:05:05.754Z,98.40
2019-03-30T06:07:36.089Z,98.50
2019-03-30T06:10:07.127Z,98.60
2019-03-30T06:12:37.449Z,98.60
2019-03-30T06:15:08.475Z,98.70
2019-03-30T06:17:39.078Z,98.80
2019-03-30T06:20:10.138Z,99.50
2019-03-30T06:22:41.025Z,99.60
2019-03-30T06:25:11.418Z,99.90
2019-03-30T06:27:42.146Z,99.90
2019-03-30T06:30:23.303Z,99.90
2019-03-30T06:32:53.654Z,99.90
2019-03-30T06:35:24.381Z,99.90
2019-03-30T06:37:55.124Z,99.90
2019-03-30T06:40:25.829Z,99.90
2019-03-30T06:42:56.161Z,99.90
2019-03-30T06:45:27.111Z,99.90
2019-03-30T06:47:57.865Z,99.90
2019-03-30T06:50:28.225Z,99.90
2019-03-30T06:52:59.053Z,99.90
2019-03-30T06:55:29.597Z,99.90
2019-03-30T06:58:00.505Z,99.90
2019-03-30T07:00:35.033Z,99.90
2019-03-30T07:03:06.741Z,99.90
2019-03-30T07:05:41.021Z,99.90
2019-03-30T07:08:16.153Z,99.90
2019-03-30T07:10:46.606Z,99.90
2019-03-30T07:13:17.418Z,99.90
2019-03-30T07:15:48.885Z,99.90
2019-03-30T07:18:20.318Z,99.90
2019-03-30T07:20:50.674Z,99.90
2019-03-30T07:23:21.789Z,99.90
2019-03-30T07:25:52.505Z,99.90
2019-03-30T07:28:22.843Z,99.90
2019-03-30T07:30:53.173Z,99.80
2019-03-30T07:33:23.542Z,99.30
2019-03-30T07:35:53.899Z,99.10
2019-03-30T07:38:25.191Z,99.10
2019-03-30T07:40:55.899Z,99.00
2019-03-30T07:43:26.287Z,98.60
2019-03-30T07:45:56.974Z,98.50
2019-03-30T07:48:27.384Z,98.10
2019-03-30T07:50:58.047Z,98.20
2019-03-30T07:53:28.778Z,98.20
2019-03-30T07:56:08.305Z,98.20
2019-03-30T07:58:31.220Z,97.90
2019-03-30T08:01:01.852Z,97.70
2019-03-30T08:03:32.549Z,98.00
2019-03-30T08:06:02.889Z,98.40
2019-03-30T08:08:34.880Z,97.70
2019-03-30T08:11:05.542Z,97.50
2019-03-30T08:13:36.071Z,97.30
2019-03-30T08:16:06.467Z,96.50
2019-03-30T08:18:37.443Z,96.40
2019-03-30T08:21:08.112Z,95.60
2019-03-30T08:23:40.579Z,95.40
2019-03-30T08:26:10.566Z,94.70
2019-03-30T08:28:41.311Z,94.00
2019-03-30T08:31:12.138Z,93.90
2019-03-30T08:33:42.920Z,93.90
2019-03-30T08:36:13.294Z,94.00
2019-03-30T08:38:43.997Z,93.40
2019-03-30T08:41:14.718Z,92.80
2019-03-30T08:43:45.362Z,92.10
2019-03-30T08:46:15.800Z,91.50
2019-03-30T08:48:46.676Z,92.60
2019-03-30T08:51:20.686Z,91.50
2019-03-30T08:53:54.822Z,91.60
2019-03-30T08:56:22.056Z,90.40
2019-03-30T08:58:53.267Z,90.50
2019-03-30T09:01:23.988Z,90.00
2019-03-30T09:03:54.703Z,89.40
2019-03-30T09:06:25.658Z,86.40
2019-03-30T09:08:56.278Z,87.20
2019-03-30T09:11:26.667Z,87.70
2019-03-30T09:13:57.359Z,84.20
2019-03-30T09:16:28.397Z,82.90
2019-03-30T09:18:59.344Z,80.90
2019-03-30T09:21:29.714Z,81.00
2019-03-30T09:24:09.512Z,79.30
2019-03-30T09:26:32.194Z,79.80
2019-03-30T09:29:02.534Z,77.80
2019-03-30T09:31:33.213Z,77.30
2019-03-30T09:34:04.270Z,78.60
2019-03-30T09:36:34.659Z,74.20
2019-03-30T09:39:06.931Z,72.40
2019-03-30T09:41:37.316Z,66.40
2019-03-30T09:44:07.686Z,59.20
2019-03-30T09:46:38.327Z,58.90
2019-03-30T09:49:09.082Z,55.30
2019-03-30T09:51:39.750Z,55.50
2019-03-30T09:54:23.122Z,53.60
2019-03-30T09:56:43.835Z,54.60
2019-03-30T09:59:14.202Z,51.80
2019-03-30T10:01:44.647Z,49.90
2019-03-30T10:04:15.706Z,48.60
2019-03-30T10:06:46.301Z,48.10
2019-03-30T10:09:16.742Z,50.80
2019-03-30T10:11:47.387Z,50.00
2019-03-30T10:14:19.384Z,50.80
2019-03-30T10:16:50.198Z,50.10
2019-03-30T10:19:20.952Z,48.50
2019-03-30T10:21:51.330Z,50.20
2019-03-30T10:24:21.765Z,47.20
2019-03-30T10:26:52.507Z,47.30
2019-03-30T10:29:23.219Z,46.90
2019-03-30T10:31:53.584Z,46.00
2019-03-30T10:34:24.238Z,45.10
2019-03-30T10:36:54.795Z,44.50
2019-03-30T10:39:25.551Z,44.50
2019-03-30T10:41:56.282Z,44.50
2019-03-30T10:44:26.644Z,44.30
2019-03-30T10:46:57.461Z,42.30
2019-03-30T10:49:28.202Z,41.90
2019-03-30T10:51:58.669Z,41.40
2019-03-30T10:54:29.375Z,40.40
2019-03-30T10:56:59.769Z,40.00
2019-03-30T10:59:30.206Z,39.60
2019-03-30T11:02:00.940Z,38.40
2019-03-30T11:04:31.450Z,38.30
2019-03-30T11:07:02.155Z,37.60
2019-03-30T11:09:32.849Z,39.00
2019-03-30T11:12:03.562Z,39.10
2019-03-30T11:14:34.260Z,38.80
2019-03-30T11:17:04.601Z,39.30
2019-03-30T11:19:34.786Z,39.30
2019-03-30T11:22:05.526Z,36.70
2019-03-30T11:24:36.342Z,35.60
2019-03-30T11:27:07.096Z,34.60
2019-03-30T11:29:38.512Z,34.20
2019-03-30T11:32:08.951Z,34.10
2019-03-30T11:34:39.716Z,34.10
2019-03-30T11:37:10.735Z,32.70
2019-03-30T11:39:41.721Z,33.10
2019-03-30T11:42:12.132Z,32.70
2019-03-30T11:44:42.512Z,33.70
2019-03-30T11:47:13.167Z,33.60
2019-03-30T11:49:43.861Z,32.70
2019-03-30T11:52:14.202Z,32.20
2019-03-30T11:54:45.028Z,31.60
2019-03-30T11:57:15.754Z,33.00
2019-03-30T11:59:46.518Z,33.40
2019-03-30T12:02:27.743Z,33.90
2019-03-30T12:04:50.104Z,33.30
2019-03-30T12:07:20.467Z,34.10
2019-03-30T12:09:51.277Z,34.00
2019-03-30T12:12:22.069Z,33.50
2019-03-30T12:14:52.438Z,34.00
2019-03-30T12:17:22.875Z,33.30
2019-03-30T12:19:54.225Z,32.70
2019-03-30T12:22:24.929Z,33.80
2019-03-30T12:24:55.275Z,34.10
2019-03-30T12:27:25.997Z,33.70
2019-03-30T12:29:56.729Z,31.80
2019-03-30T12:32:27.363Z,32.20
2019-03-30T12:34:58.487Z,32.50
2019-03-30T12:37:29.151Z,33.00
2019-03-30T12:39:59.785Z,31.70
2019-03-30T12:42:30.545Z,32.10
2019-03-30T12:45:01.382Z,32.90
2019-03-30T12:47:32.194Z,32.70
2019-03-30T12:50:02.625Z,32.60
2019-03-30T12:52:32.996Z,30.50
2019-03-30T12:55:04.148Z,31.00
2019-03-30T12:57:34.880Z,30.90
2019-03-30T13:00:08.772Z,30.90
2019-03-30T13:02:39.576Z,30.50
2019-03-30T13:05:23.258Z,31.00
2019-03-30T13:07:53.868Z,30.20
2019-03-30T13:10:24.569Z,30.30
2019-03-30T13:12:54.932Z,30.40
2019-03-30T13:15:25.453Z,29.90
2019-03-30T13:17:55.818Z,29.50
2019-03-30T13:20:26.577Z,29.00
2019-03-30T13:22:56.936Z,29.20
2019-03-30T13:25:27.574Z,29.00
2019-03-30T13:27:58.051Z,28.10
2019-03-30T13:30:28.820Z,28.00
2019-03-30T13:32:59.196Z,27.90
2019-03-30T13:35:29.907Z,28.00
2019-03-30T13:38:00.276Z,28.60
2019-03-30T13:40:30.622Z,28.60
2019-03-30T13:43:00.998Z,27.70
2019-03-30T13:45:31.360Z,27.90
2019-03-30T13:48:02.051Z,27.30
2019-03-30T13:50:33.095Z,27.50
2019-03-30T13:53:03.468Z,27.30
2019-03-30T13:55:34.133Z,27.70
2019-03-30T13:58:04.583Z,27.20
2019-03-30T14:00:35.313Z,27.10
2019-03-30T14:03:06.078Z,27.30
2019-03-30T14:05:36.488Z,27.20
2019-03-30T14:08:07.835Z,27.30
2019-03-30T14:10:39.308Z,27.20
2019-03-30T14:13:10.133Z,27.70
2019-03-30T14:15:41.051Z,27.50
2019-03-30T14:18:11.425Z,28.50
2019-03-30T14:20:42.175Z,27.60
2019-03-30T14:23:13.406Z,27.30
2019-03-30T14:25:43.778Z,27.10
2019-03-30T14:28:14.834Z,27.20
2019-03-30T14:30:45.176Z,27.20
2019-03-30T14:33:15.820Z,27.30
2019-03-30T14:35:46.256Z,28.60
2019-03-30T14:38:16.978Z,28.60
2019-03-30T14:40:47.341Z,28.70
2019-03-30T14:43:17.985Z,28.90
2019-03-30T14:45:48.864Z,28.70
2019-03-30T14:48:19.610Z,29.00
2019-03-30T14:50:50.329Z,28.20
2019-03-30T14:53:21.018Z,28.40
2019-03-30T14:55:51.881Z,28.70
2019-03-30T14:58:22.647Z,28.40
2019-03-30T15:00:53.533Z,28.10
2019-03-30T15:03:24.245Z,28.70
2019-03-30T15:05:54.637Z,28.80
2019-03-30T15:08:25.282Z,28.30
2019-03-30T15:10:55.653Z,28.40
2019-03-30T15:13:26.296Z,28.50
2019-03-30T15:15:56.663Z,28.90
2019-03-30T15:18:27.306Z,29.10
2019-03-30T15:20:57.813Z,29.40
2019-03-30T15:23:28.265Z,29.60
2019-03-30T15:25:59.203Z,28.80
2019-03-30T15:28:29.616Z,29.10
2019-03-30T15:31:00.261Z,29.40
2019-03-30T15:33:30.625Z,29.10
2019-03-30T15:36:01.363Z,29.40
2019-03-30T15:38:32.119Z,30.00
2019-03-30T15:41:02.485Z,30.10
2019-03-30T15:43:38.532Z,30.40
2019-03-30T15:46:05.227Z,30.30
2019-03-30T15:48:37.209Z,30.00
2019-03-30T15:51:07.977Z,29.60
2019-03-30T15:53:38.612Z,29.80
2019-03-30T15:56:09.352Z,29.30
2019-03-30T15:58:40.135Z,29.10
2019-03-30T16:01:10.503Z,28.40
2019-03-30T16:03:40.870Z,27.60
2019-03-30T16:06:11.935Z,27.70
2019-03-30T16:08:42.337Z,27.70
2019-03-30T16:11:12.695Z,28.00
2019-03-30T16:13:43.048Z,28.20
2019-03-30T16:16:13.847Z,28.30
2019-03-30T16:18:44.484Z,28.50
2019-03-30T16:21:14.907Z,28.50
2019-03-30T16:23:45.391Z,28.70
2019-03-30T16:26:16.077Z,29.30
2019-03-30T16:28:47.312Z,29.40
2019-03-30T16:31:18.375Z,29.60
2019-03-30T16:33:48.743Z,29.60
2019-03-30T16:36:20.152Z,29.80
2019-03-30T16:38:50.495Z,29.90
2019-03-30T16:41:21.396Z,30.00
2019-03-30T16:44:11.674Z,29.90
2019-03-30T16:46:42.019Z,29.90
2019-03-30T16:49:12.398Z,30.20
2019-03-30T16:51:43.160Z,30.40
2019-03-30T16:54:32.962Z,30.70
2019-03-30T16:57:03.451Z,31.00
2019-03-30T16:59:34.201Z,31.30
2019-03-30T17:02:05.289Z,32.60
2019-03-30T17:04:35.668Z,32.00
2019-03-30T17:07:06.667Z,32.50
2019-03-30T17:09:37.555Z,32.80
2019-03-30T17:12:07.944Z,33.60
2019-03-30T17:14:38.314Z,33.50
2019-03-30T17:17:08.681Z,33.30
2019-03-30T17:19:39.420Z,34.20
2019-03-30T17:22:10.040Z,33.60
2019-03-30T17:24:40.696Z,33.80
2019-03-30T17:27:11.121Z,34.30
2019-03-30T17:29:41.856Z,34.80
2019-03-30T17:32:12.295Z,35.30
2019-03-30T17:34:42.951Z,35.30
2019-03-30T17:37:14.636Z,35.60
2019-03-30T17:39:45.752Z,36.30
2019-03-30T17:42:16.213Z,36.30
2019-03-30T17:44:46.617Z,36.30
2019-03-30T17:47:17.022Z,36.80
2019-03-30T17:49:48.050Z,37.00
2019-03-30T17:52:18.669Z,37.10
2019-03-30T17:54:49.037Z,37.90
2019-03-30T17:57:19.762Z,38.10
2019-03-30T17:59:50.390Z,39.40
2019-03-30T18:02:23.075Z,39.10
2019-03-30T18:04:53.368Z,39.00
2019-03-30T18:07:23.739Z,39.10
2019-03-30T18:09:54.447Z,38.90
2019-03-30T18:12:25.537Z,39.20
2019-03-30T18:14:56.229Z,39.40
2019-03-30T18:17:26.602Z,39.80
2019-03-30T18:19:57.283Z,39.80
2019-03-30T18:22:27.630Z,40.20
2019-03-30T18:24:58.357Z,40.40
2019-03-30T18:27:29.205Z,40.50
2019-03-30T18:29:59.554Z,40.70
2019-03-30T18:32:30.479Z,40.60
2019-03-30T18:35:01.455Z,40.60
2019-03-30T18:37:32.280Z,41.00
2019-03-30T18:40:03.062Z,40.90
2019-03-30T18:42:33.493Z,40.60
2019-03-30T18:45:05.618Z,40.90
2019-03-30T18:47:36.409Z,40.90
2019-03-30T18:50:12.077Z,41.00
2019-03-30T18:52:43.144Z,41.00
2019-03-30T18:55:18.812Z,41.00
2019-03-30T18:57:49.527Z,41.00
2019-03-30T19:00:27.494Z,41.10
2019-03-30T19:02:58.269Z,41.60
2019-03-30T19:05:28.965Z,40.90
2019-03-30T19:07:59.366Z,41.00
2019-03-30T19:10:29.753Z,41.10
2019-03-30T19:13:00.762Z,41.50
2019-03-30T19:15:31.399Z,41.10
2019-03-30T19:18:01.934Z,41.20
2019-03-30T19:20:32.587Z,41.30
2019-03-30T19:23:03.299Z,41.90
2019-03-30T19:25:34.017Z,42.70
2019-03-30T19:28:04.397Z,42.90
2019-03-30T19:30:34.973Z,43.60
2019-03-30T19:33:05.751Z,44.10
2019-03-30T19:35:36.509Z,44.90
2019-03-30T19:38:10.717Z,44.80
2019-03-30T19:40:39.327Z,44.20
2019-03-30T19:43:09.675Z,43.60
2019-03-30T19:45:40.449Z,44.10
2019-03-30T19:48:10.818Z,44.10
2019-03-30T19:50:41.191Z,44.10
2019-03-30T19:53:11.951Z,44.00
2019-03-30T19:55:42.564Z,44.10
2019-03-30T19:58:13.068Z,43.90
2019-03-30T20:00:43.707Z,44.30
2019-03-30T20:03:14.459Z,44.80
2019-03-30T20:05:45.176Z,45.60
2019-03-30T20:08:15.585Z,44.90
2019-03-30T20:10:45.890Z,45.10
2019-03-30T20:13:16.633Z,45.90
2019-03-30T20:15:47.338Z,46.00
2019-03-30T20:18:17.703Z,45.70
2019-03-30T20:20:48.161Z,45.10
2019-03-30T20:23:18.598Z,45.30
2019-03-30T20:25:48.970Z,45.70
2019-03-30T20:28:19.721Z,45.80
2019-03-30T20:30:50.844Z,46.00
2019-03-30T20:33:21.213Z,46.60
2019-03-30T20:35:52.511Z,46.60
2019-03-30T20:38:23.134Z,46.50
2019-03-30T20:40:54.611Z,46.60
2019-03-30T20:43:25.026Z,46.70
2019-03-30T20:45:55.396Z,46.70
2019-03-30T20:48:25.764Z,46.50
2019-03-30T20:50:56.525Z,46.30
2019-03-30T20:53:26.881Z,46.00
2019-03-30T20:55:57.248Z,45.80
2019-03-30T20:58:27.730Z,45.50
2019-03-30T21:00:58.460Z,45.30
2019-03-30T21:03:28.812Z,44.90
2019-03-30T21:05:59.393Z,44.80
2019-03-30T21:08:30.111Z,45.10
2019-03-30T21:11:00.830Z,46.30
2019-03-30T21:13:32.094Z,46.40
2019-03-30T21:16:02.714Z,46.40
2019-03-30T21:18:33.255Z,46.50
2019-03-30T21:21:03.702Z,46.90
2019-03-30T21:23:34.338Z,48.00
2019-03-30T21:26:04.985Z,47.90
2019-03-30T21:28:35.493Z,48.00
2019-03-30T21:31:06.579Z,48.80
2019-03-30T21:33:36.903Z,49.10
2019-03-30T21:36:07.383Z,49.50
2019-03-30T21:38:37.761Z,49.90
2019-03-30T21:41:11.514Z,50.00
2019-03-30T21:43:41.871Z,49.70
2019-03-30T21:46:12.775Z,49.10
2019-03-30T21:48:43.159Z,49.30
2019-03-30T21:51:13.881Z,49.90
2019-03-30T21:53:44.564Z,50.00
2019-03-30T21:56:15.294Z,50.30
2019-03-30T21:58:46.383Z,51.70
2019-03-30T22:01:16.813Z,54.60
2019-03-30T22:03:47.764Z,54.80
2019-03-30T22:06:18.473Z,55.70
2019-03-30T22:08:49.762Z,56.30
2019-03-30T22:11:20.900Z,56.30
2019-03-30T22:13:51.274Z,56.60
2019-03-30T22:16:21.984Z,56.20
2019-03-30T22:18:54.020Z,56.20
2019-03-30T22:21:24.460Z,56.20
2019-03-30T22:23:54.925Z,56.20
2019-03-30T22:26:25.291Z,57.10
2019-03-30T22:28:56.184Z,57.00
2019-03-30T22:31:27.303Z,56.10
2019-03-30T22:33:57.642Z,55.00
2019-03-30T22:36:28.825Z,54.60
2019-03-30T22:38:59.567Z,53.70
2019-03-30T22:41:30.283Z,52.80
2019-03-30T22:44:00.713Z,52.30
2019-03-30T22:46:31.907Z,52.00
2019-03-30T22:49:03.172Z,52.10
2019-03-30T22:51:33.572Z,54.00
2019-03-30T22:54:04.447Z,56.60
2019-03-30T22:56:35.180Z,59.80
2019-03-30T22:59:06.632Z,60.50
2019-03-30T23:01:37.339Z,61.20
2019-03-30T23:04:07.996Z,61.20
2019-03-30T23:06:38.407Z,62.10
2019-03-30T23:09:11.405Z,62.60
2019-03-30T23:11:41.135Z,63.30
2019-03-30T23:14:11.579Z,63.30
2019-03-30T23:16:42.353Z,64.50
2019-03-30T23:19:12.774Z,65.90
2019-03-30T23:21:43.158Z,66.00
2019-03-30T23:24:13.917Z,66.10
2019-03-30T23:26:44.559Z,67.40
2019-03-30T23:29:14.939Z,72.20
2019-03-30T23:31:45.658Z,72.00
2019-03-30T23:34:16.300Z,71.50
2019-03-30T23:36:47.455Z,71.60
2019-03-30T23:39:18.199Z,71.90
2019-03-30T23:41:48.835Z,73.00
2019-03-30T23:44:19.457Z,76.00
2019-03-30T23:46:49.815Z,75.00
2019-03-30T23:49:20.560Z,74.30
2019-03-30T23:51:51.335Z,74.30
2019-03-30T23:54:21.765Z,75.00
2019-03-30T23:56:52.129Z,76.60
2019-03-30T23:59:22.905Z,77.50
